createdAt,value
2023-07-25T00:00:57.617Z,20.76
2023-07-25T00:01:59.306Z,20.73
2023-07-25T00:03:01.051Z,20.75
2023-07-25T00:04:02.780Z,20.73
2023-07-25T00:05:05.356Z,20.74
2023-07-25T00:06:07.077Z,20.73
2023-07-25T00:07:08.849Z,20.74
2023-07-25T00:08:10.456Z,20.74
2023-07-25T00:09:12.059Z,20.69
2023-07-25T00:10:13.694Z,20.68
2023-07-25T00:11:16.081Z,20.67
2023-07-25T00:12:17.703Z,20.69
2023-07-25T00:13:19.325Z,20.70
2023-07-25T00:14:21.078Z,20.74
2023-07-25T00:15:22.896Z,20.78
2023-07-25T00:16:24.516Z,20.81
2023-07-25T00:17:26.181Z,20.80
2023-07-25T00:18:27.821Z,20.76
2023-07-25T00:19:29.505Z,20.74
2023-07-25T00:20:31.835Z,20.73
2023-07-25T00:21:33.699Z,20.81
2023-07-25T00:22:35.676Z,20.82
2023-07-25T00:23:37.331Z,20.80
2023-07-25T00:24:39.070Z,20.81
2023-07-25T00:25:40.747Z,20.76
2023-07-25T00:26:42.440Z,20.78
2023-07-25T00:27:44.142Z,20.81
2023-07-25T00:28:45.860Z,20.78
2023-07-25T00:29:47.592Z,20.78
2023-07-25T00:30:49.408Z,20.77
2023-07-25T00:31:51.202Z,20.78
2023-07-25T00:32:52.962Z,20.75
2023-07-25T00:33:54.623Z,20.78
2023-07-25T00:34:56.283Z,20.79
2023-07-25T00:35:57.933Z,20.78
2023-07-25T00:36:59.643Z,20.73
2023-07-25T00:38:03.948Z,20.69
2023-07-25T00:39:05.559Z,20.60
2023-07-25T00:40:07.685Z,20.41
2023-07-25T00:41:09.357Z,20.25
2023-07-25T00:42:11.011Z,20.07
2023-07-25T00:43:12.658Z,19.93
2023-07-25T00:44:14.327Z,19.84
2023-07-25T00:45:16.252Z,19.84
2023-07-25T00:46:18.127Z,19.96
2023-07-25T00:47:22.425Z,20.05
2023-07-25T00:48:24.153Z,20.17
2023-07-25T00:49:26.101Z,20.14
2023-07-25T00:50:28.759Z,20.16
2023-07-25T00:51:30.694Z,20.22
2023-07-25T00:52:32.861Z,20.31
2023-07-25T00:53:34.551Z,20.38
2023-07-25T00:54:40.147Z,20.44
2023-07-25T00:55:41.871Z,20.49
2023-07-25T00:56:43.572Z,20.52
2023-07-25T00:57:45.177Z,20.51
2023-07-25T00:58:48.001Z,20.41
2023-07-25T00:59:49.631Z,20.33
2023-07-25T01:00:51.256Z,20.31
2023-07-25T01:01:52.941Z,20.36
2023-07-25T01:02:54.796Z,20.23
2023-07-25T01:03:56.551Z,20.20
2023-07-25T01:04:58.274Z,20.20
2023-07-25T01:06:02.871Z,20.24
2023-07-25T01:07:06.086Z,20.31
2023-07-25T01:08:08.192Z,20.40
2023-07-25T01:09:09.854Z,20.47
2023-07-25T01:10:14.406Z,20.52
2023-07-25T01:11:16.103Z,20.58
2023-07-25T01:12:17.768Z,20.59
2023-07-25T01:13:19.422Z,20.55
2023-07-25T01:14:21.064Z,20.48
2023-07-25T01:15:22.825Z,20.43
2023-07-25T01:16:26.617Z,20.33
2023-07-25T01:17:28.587Z,20.26
2023-07-25T01:18:30.380Z,20.26
2023-07-25T01:19:35.116Z,20.22
2023-07-25T01:20:37.632Z,20.27
2023-07-25T01:21:39.502Z,20.34
2023-07-25T01:22:41.880Z,20.35
2023-07-25T01:23:44.017Z,20.41
2023-07-25T01:24:47.677Z,20.44
2023-07-25T01:25:49.393Z,20.52
2023-07-25T01:26:51.120Z,20.59
2023-07-25T01:27:52.857Z,20.63
2023-07-25T01:28:54.571Z,20.67
2023-07-25T01:29:56.223Z,20.70
2023-07-25T01:30:58.085Z,20.73
2023-07-25T01:31:59.759Z,20.78
2023-07-25T01:33:01.409Z,20.81
2023-07-25T01:34:03.113Z,20.79
2023-07-25T01:35:06.469Z,20.74
2023-07-25T01:36:08.129Z,20.57
2023-07-25T01:37:09.947Z,20.43
2023-07-25T01:38:11.574Z,20.31
2023-07-25T01:39:16.859Z,20.23
2023-07-25T01:40:18.632Z,20.20
2023-07-25T01:41:20.233Z,20.14
2023-07-25T01:42:21.865Z,20.18
2023-07-25T01:43:23.514Z,20.21
2023-07-25T01:44:25.143Z,20.28
2023-07-25T01:45:26.816Z,20.36
2023-07-25T01:46:28.447Z,20.46
2023-07-25T01:47:30.103Z,20.54
2023-07-25T01:48:31.755Z,20.59
2023-07-25T01:49:33.449Z,20.67
2023-07-25T01:50:35.059Z,20.71
2023-07-25T01:51:36.916Z,20.74
2023-07-25T01:52:38.548Z,20.69
2023-07-25T01:53:40.282Z,20.57
2023-07-25T01:54:41.898Z,20.49
2023-07-25T01:55:43.525Z,20.54
2023-07-25T01:56:46.247Z,20.46
2023-07-25T01:57:49.137Z,20.31
2023-07-25T01:58:50.782Z,20.12
2023-07-25T01:59:52.509Z,20.07
2023-07-25T02:01:01.214Z,19.96
2023-07-25T02:02:04.499Z,19.87
2023-07-25T02:03:06.279Z,19.87
2023-07-25T02:04:07.995Z,19.81
2023-07-25T02:05:09.953Z,19.76
2023-07-25T02:06:11.623Z,19.73
2023-07-25T02:07:13.261Z,19.70
2023-07-25T02:08:14.905Z,19.74
2023-07-25T02:09:16.558Z,19.79
2023-07-25T02:10:18.302Z,19.91
2023-07-25T02:11:19.940Z,19.98
2023-07-25T02:12:21.580Z,20.05
2023-07-25T02:13:23.231Z,20.14
2023-07-25T02:14:24.982Z,20.21
2023-07-25T02:15:26.620Z,20.33
2023-07-25T02:16:29.367Z,20.37
2023-07-25T02:17:31.180Z,20.36
2023-07-25T02:18:32.984Z,20.40
2023-07-25T02:19:35.552Z,20.44
2023-07-25T02:20:37.195Z,20.47
2023-07-25T02:21:38.969Z,20.43
2023-07-25T02:22:40.604Z,20.42
2023-07-25T02:23:42.228Z,20.44
2023-07-25T02:24:43.823Z,20.45
2023-07-25T02:25:45.485Z,20.42
2023-07-25T02:26:47.106Z,20.35
2023-07-25T02:27:48.708Z,20.28
2023-07-25T02:28:50.365Z,20.00
2023-07-25T02:29:51.962Z,19.90
2023-07-25T02:30:53.602Z,19.77
2023-07-25T02:31:55.335Z,19.72
2023-07-25T02:32:56.963Z,19.59
2023-07-25T02:33:58.649Z,19.69
2023-07-25T02:35:00.336Z,19.63
2023-07-25T02:36:02.031Z,19.51
2023-07-25T02:37:03.728Z,19.38
2023-07-25T02:38:09.915Z,19.38
2023-07-25T02:39:11.545Z,19.30
2023-07-25T02:40:13.297Z,19.23
2023-07-25T02:41:14.935Z,19.25
2023-07-25T02:42:16.565Z,19.14
2023-07-25T02:43:18.516Z,19.03
2023-07-25T02:44:20.163Z,18.98
2023-07-25T02:45:21.815Z,18.93
2023-07-25T02:46:23.517Z,18.88
2023-07-25T02:47:25.281Z,18.78
2023-07-25T02:48:27.044Z,18.82
2023-07-25T02:49:28.723Z,18.84
2023-07-25T02:50:30.430Z,18.88
2023-07-25T02:51:32.424Z,19.02
2023-07-25T02:52:34.262Z,19.16
2023-07-25T02:53:35.902Z,19.24
2023-07-25T02:54:37.712Z,19.32
2023-07-25T02:55:39.998Z,19.41
2023-07-25T02:56:41.624Z,19.46
2023-07-25T02:57:43.236Z,19.50
2023-07-25T02:58:44.809Z,19.55
2023-07-25T02:59:46.430Z,19.61
2023-07-25T03:00:48.473Z,19.63
2023-07-25T03:01:50.200Z,19.65
2023-07-25T03:02:52.168Z,19.70
2023-07-25T03:03:53.860Z,19.57
2023-07-25T03:04:55.491Z,19.42
2023-07-25T03:05:57.231Z,19.37
2023-07-25T03:06:58.942Z,19.28
2023-07-25T03:08:00.663Z,19.14
2023-07-25T03:09:02.330Z,19.15
2023-07-25T03:10:04.288Z,19.18
2023-07-25T03:11:06.012Z,19.23
2023-07-25T03:12:08.197Z,19.28
2023-07-25T03:13:09.845Z,19.32
2023-07-25T03:14:11.501Z,19.36
2023-07-25T03:15:13.218Z,19.35
2023-07-25T03:16:14.961Z,19.36
2023-07-25T03:17:16.664Z,19.38
2023-07-25T03:18:18.297Z,19.44
2023-07-25T03:19:19.921Z,19.45
2023-07-25T03:20:21.545Z,19.41
2023-07-25T03:21:23.214Z,19.30
2023-07-25T03:22:24.940Z,19.25
2023-07-25T03:23:26.612Z,19.20
2023-07-25T03:24:28.400Z,19.22
2023-07-25T03:25:30.076Z,19.22
2023-07-25T03:26:32.181Z,19.14
2023-07-25T03:27:33.896Z,19.13
2023-07-25T03:28:35.565Z,19.13
2023-07-25T03:29:37.504Z,19.11
2023-07-25T03:30:39.224Z,19.10
2023-07-25T03:31:40.859Z,19.13
2023-07-25T03:32:43.003Z,19.14
2023-07-25T03:33:44.702Z,19.09
2023-07-25T03:34:46.440Z,19.16
2023-07-25T03:35:48.118Z,19.21
2023-07-25T03:36:49.795Z,19.24
2023-07-25T03:37:51.469Z,19.29
2023-07-25T03:38:53.240Z,19.33
2023-07-25T03:39:55.056Z,19.36
2023-07-25T03:40:56.673Z,19.37
2023-07-25T03:41:58.308Z,19.35
2023-07-25T03:42:59.940Z,19.18
2023-07-25T03:44:01.544Z,19.08
2023-07-25T03:45:03.421Z,18.95
2023-07-25T03:46:05.204Z,18.87
2023-07-25T03:47:06.917Z,18.85
2023-07-25T03:48:10.023Z,18.79
2023-07-25T03:49:12.673Z,18.73
2023-07-25T03:50:14.456Z,18.63
2023-07-25T03:51:16.062Z,18.55
2023-07-25T03:52:17.692Z,18.58
2023-07-25T03:53:19.319Z,18.60
2023-07-25T03:54:20.993Z,18.53
2023-07-25T03:55:22.654Z,18.59
2023-07-25T03:56:24.279Z,18.63
2023-07-25T03:57:25.999Z,18.64
2023-07-25T03:58:27.622Z,18.75
2023-07-25T03:59:29.496Z,18.85
2023-07-25T04:00:31.180Z,18.89
2023-07-25T04:01:33.170Z,19.02
2023-07-25T04:02:35.174Z,19.09
2023-07-25T04:03:36.901Z,19.16
2023-07-25T04:04:38.811Z,19.23
2023-07-25T04:05:40.705Z,19.33
2023-07-25T04:06:42.364Z,19.42
2023-07-25T04:07:43.942Z,19.50
2023-07-25T04:08:45.878Z,19.61
2023-07-25T04:09:47.497Z,19.55
2023-07-25T04:10:49.166Z,19.54
2023-07-25T04:11:50.807Z,19.58
2023-07-25T04:12:52.484Z,19.62
2023-07-25T04:13:54.124Z,19.74
2023-07-25T04:14:55.922Z,19.79
2023-07-25T04:15:57.588Z,19.81
2023-07-25T04:16:59.224Z,19.81
2023-07-25T04:18:00.952Z,19.81
2023-07-25T04:19:02.866Z,19.83
2023-07-25T04:20:04.973Z,19.82
2023-07-25T04:21:06.598Z,19.83
2023-07-25T04:22:08.197Z,19.88
2023-07-25T04:23:10.953Z,19.97
2023-07-25T04:24:12.580Z,20.03
2023-07-25T04:25:14.248Z,20.11
2023-07-25T04:26:15.921Z,20.16
2023-07-25T04:27:17.678Z,20.21
2023-07-25T04:28:19.351Z,20.27
2023-07-25T04:29:20.968Z,20.28
2023-07-25T04:30:22.613Z,20.32
2023-07-25T04:31:24.273Z,20.36
2023-07-25T04:32:25.956Z,20.41
2023-07-25T04:33:27.683Z,20.36
2023-07-25T04:34:29.397Z,20.38
2023-07-25T04:35:31.114Z,20.46
2023-07-25T04:36:32.787Z,20.50
2023-07-25T04:37:34.493Z,20.56
2023-07-25T04:38:36.149Z,20.62
2023-07-25T04:39:37.775Z,20.66
2023-07-25T04:40:39.564Z,20.71
2023-07-25T04:41:41.176Z,20.68
2023-07-25T04:42:42.866Z,20.51
2023-07-25T04:43:44.813Z,20.43
2023-07-25T04:44:46.425Z,20.49
2023-07-25T04:45:54.274Z,20.55
2023-07-25T04:46:56.898Z,20.62
2023-07-25T04:47:58.581Z,20.66
2023-07-25T04:49:00.228Z,20.61
2023-07-25T04:50:02.299Z,20.62
2023-07-25T04:51:03.942Z,20.49
2023-07-25T04:52:06.104Z,20.47
2023-07-25T04:53:07.822Z,20.47
2023-07-25T04:54:09.459Z,20.53
2023-07-25T04:55:11.132Z,20.56
2023-07-25T04:56:12.756Z,20.58
2023-07-25T04:57:14.465Z,20.59
2023-07-25T04:58:16.147Z,20.67
2023-07-25T04:59:17.796Z,20.67
2023-07-25T05:00:19.544Z,20.72
2023-07-25T05:01:21.574Z,20.83
2023-07-25T05:02:23.983Z,20.91
2023-07-25T05:03:25.717Z,21.03
2023-07-25T05:04:27.400Z,21.11
2023-07-25T05:05:29.083Z,21.19
2023-07-25T05:06:30.689Z,21.24
2023-07-25T05:07:32.355Z,21.27
2023-07-25T05:08:33.986Z,21.30
2023-07-25T05:09:35.623Z,21.37
2023-07-25T05:10:37.270Z,21.43
2023-07-25T05:11:38.922Z,21.48
2023-07-25T05:12:40.657Z,21.54
2023-07-25T05:13:42.247Z,21.58
2023-07-25T05:14:44.033Z,21.62
2023-07-25T05:15:45.858Z,21.66
2023-07-25T05:16:47.513Z,21.68
2023-07-25T05:17:49.243Z,21.75
2023-07-25T05:18:50.925Z,21.82
2023-07-25T05:19:52.588Z,21.89
2023-07-25T05:20:54.246Z,21.93
2023-07-25T05:21:55.973Z,21.98
2023-07-25T05:22:57.635Z,21.96
2023-07-25T05:23:59.294Z,21.82
2023-07-25T05:25:01.103Z,21.68
2023-07-25T05:26:02.796Z,21.71
2023-07-25T05:27:04.752Z,21.74
2023-07-25T05:28:06.471Z,21.79
2023-07-25T05:29:08.558Z,21.86
2023-07-25T05:30:10.445Z,21.88
2023-07-25T05:31:12.134Z,21.96
2023-07-25T05:32:13.752Z,22.04
2023-07-25T05:33:15.378Z,22.05
2023-07-25T05:34:17.017Z,22.17
2023-07-25T05:35:18.631Z,22.25
2023-07-25T05:36:20.284Z,22.35
2023-07-25T05:37:23.234Z,22.51
2023-07-25T05:38:24.836Z,22.66
2023-07-25T05:39:26.474Z,22.80
2023-07-25T05:40:28.266Z,22.94
2023-07-25T05:41:30.114Z,23.15
2023-07-25T05:42:32.401Z,23.41
2023-07-25T05:43:34.126Z,23.63
2023-07-25T05:44:35.929Z,23.80
2023-07-25T05:45:37.569Z,23.99
2023-07-25T05:46:39.247Z,24.20
2023-07-25T05:47:40.873Z,24.37
2023-07-25T05:48:42.552Z,24.53
2023-07-25T05:49:44.193Z,24.59
2023-07-25T05:50:53.373Z,24.73
2023-07-25T05:51:55.067Z,24.80
2023-07-25T05:52:56.694Z,24.86
2023-07-25T05:53:58.288Z,24.99
2023-07-25T05:54:59.916Z,25.08
2023-07-25T05:56:01.545Z,24.90
2023-07-25T05:57:03.320Z,24.96
2023-07-25T05:58:04.931Z,25.00
2023-07-25T05:59:06.570Z,24.92
2023-07-25T06:00:08.714Z,24.89
2023-07-25T06:01:10.378Z,24.90
2023-07-25T06:02:12.105Z,24.85
2023-07-25T06:03:15.123Z,24.97
2023-07-25T06:04:16.910Z,25.06
2023-07-25T06:05:18.580Z,25.05
2023-07-25T06:06:20.206Z,25.09
2023-07-25T06:07:23.867Z,25.07
2023-07-25T06:08:25.794Z,24.96
2023-07-25T06:09:27.496Z,24.95
2023-07-25T06:10:29.130Z,24.88
2023-07-25T06:11:31.000Z,24.89
2023-07-25T06:12:33.676Z,24.81
2023-07-25T06:13:35.531Z,24.74
2023-07-25T06:14:37.670Z,24.71
2023-07-25T06:15:39.398Z,24.73
2023-07-25T06:16:41.112Z,24.75
2023-07-25T06:17:42.951Z,24.77
2023-07-25T06:18:44.761Z,24.86
2023-07-25T06:21:03.124Z,24.94
2023-07-25T06:22:04.975Z,24.88
2023-07-25T06:23:06.649Z,24.76
2023-07-25T06:24:08.398Z,24.57
2023-07-25T06:25:10.653Z,24.52
2023-07-25T06:26:12.335Z,24.59
2023-07-25T06:27:13.992Z,24.62
2023-07-25T06:28:16.277Z,24.63
2023-07-25T06:29:20.577Z,24.57
2023-07-25T06:30:22.656Z,24.56
2023-07-25T06:31:26.426Z,24.52
2023-07-25T06:32:28.174Z,24.41
2023-07-25T06:34:40.068Z,24.44
2023-07-25T06:35:41.694Z,24.49
2023-07-25T06:36:43.363Z,24.41
2023-07-25T06:37:47.457Z,24.28
2023-07-25T06:38:49.091Z,24.21
2023-07-25T06:39:51.052Z,24.16
2023-07-25T06:40:52.829Z,24.08
2023-07-25T06:41:54.647Z,23.99
2023-07-25T06:42:56.304Z,24.05
2023-07-25T06:43:58.379Z,24.09
2023-07-25T06:45:00.096Z,24.12
2023-07-25T06:46:02.103Z,24.08
2023-07-25T06:47:03.868Z,24.09
2023-07-25T06:48:05.763Z,24.06
2023-07-25T06:49:07.440Z,24.05
2023-07-25T06:50:09.375Z,24.02
2023-07-25T06:51:11.199Z,23.95
2023-07-25T06:52:12.840Z,23.86
2023-07-25T06:53:14.463Z,23.76
2023-07-25T06:54:16.194Z,23.70
2023-07-25T06:55:17.864Z,23.72
2023-07-25T06:56:19.511Z,23.74
2023-07-25T06:57:21.338Z,23.79
2023-07-25T06:59:33.289Z,23.66
2023-07-25T07:00:37.680Z,23.59
2023-07-25T07:01:39.481Z,23.60
2023-07-25T07:02:42.493Z,23.50
2023-07-25T07:03:44.212Z,23.50
2023-07-25T07:04:45.889Z,23.47
2023-07-25T07:05:55.267Z,23.46
2023-07-25T07:06:57.147Z,23.47
2023-07-25T07:07:59.755Z,23.57
2023-07-25T07:09:01.433Z,23.69
2023-07-25T07:10:03.216Z,23.86
2023-07-25T07:11:04.956Z,23.96
2023-07-25T07:12:07.004Z,24.05
2023-07-25T07:13:11.253Z,24.18
2023-07-25T07:14:12.914Z,24.22
2023-07-25T07:15:14.969Z,24.31
2023-07-25T07:16:16.584Z,24.36
2023-07-25T07:17:18.863Z,24.41
2023-07-25T07:18:20.591Z,24.41
2023-07-25T07:19:22.393Z,24.47
2023-07-25T07:20:23.986Z,24.49
2023-07-25T07:21:25.661Z,24.50
2023-07-25T07:22:27.395Z,24.53
2023-07-25T07:23:28.984Z,24.65
2023-07-25T07:24:30.718Z,24.78
2023-07-25T07:25:32.362Z,24.86
2023-07-25T07:26:33.964Z,24.99
2023-07-25T07:27:35.641Z,25.18
2023-07-25T07:28:37.273Z,25.25
2023-07-25T07:29:38.902Z,25.25
2023-07-25T07:30:40.754Z,25.31
2023-07-25T07:31:42.341Z,25.36
2023-07-25T07:32:43.986Z,25.46
2023-07-25T07:33:45.602Z,25.47
2023-07-25T07:34:47.371Z,25.47
2023-07-25T07:35:49.063Z,25.50
2023-07-25T07:36:50.679Z,25.59
2023-07-25T07:37:52.323Z,25.63
2023-07-25T07:38:53.942Z,25.53
2023-07-25T07:39:55.538Z,25.54
2023-07-25T07:40:57.225Z,25.50
2023-07-25T07:41:58.817Z,25.59
2023-07-25T07:43:00.430Z,25.62
2023-07-25T07:44:02.531Z,25.76
2023-07-25T07:45:04.458Z,25.87
2023-07-25T07:46:06.152Z,26.01
2023-07-25T07:47:07.868Z,26.04
2023-07-25T07:48:09.534Z,26.00
2023-07-25T07:49:11.187Z,26.01
2023-07-25T07:50:12.813Z,26.13
2023-07-25T07:51:18.060Z,26.19
2023-07-25T07:52:32.871Z,26.16
2023-07-25T07:53:38.816Z,26.13
2023-07-25T07:54:40.450Z,26.19
2023-07-25T07:55:42.115Z,26.30
2023-07-25T07:56:43.729Z,26.38
2023-07-25T07:57:47.793Z,26.59
2023-07-25T07:58:49.414Z,26.64
2023-07-25T07:59:51.472Z,26.73
2023-07-25T08:00:53.166Z,26.86
2023-07-25T08:01:54.918Z,26.82
2023-07-25T08:02:56.744Z,26.74
2023-07-25T08:03:58.357Z,26.81
2023-07-25T08:04:59.987Z,26.96
2023-07-25T08:06:01.627Z,26.87
2023-07-25T08:07:03.464Z,26.92
2023-07-25T08:08:05.122Z,26.95
2023-07-25T08:09:06.743Z,27.07
2023-07-25T08:10:08.859Z,27.24
2023-07-25T08:11:10.846Z,27.27
2023-07-25T08:12:12.475Z,27.40
2023-07-25T08:13:14.375Z,27.52
2023-07-25T08:14:16.091Z,27.62
2023-07-25T08:15:18.052Z,27.40
2023-07-25T08:16:20.087Z,27.20
2023-07-25T08:17:22.214Z,27.00
2023-07-25T08:18:23.922Z,26.95
2023-07-25T08:19:25.569Z,27.03
2023-07-25T08:20:27.197Z,27.07
2023-07-25T08:21:29.264Z,27.11
2023-07-25T08:22:31.178Z,27.06
2023-07-25T08:23:32.837Z,27.15
2023-07-25T08:24:34.842Z,27.24
2023-07-25T08:25:41.955Z,27.17
2023-07-25T08:26:43.616Z,27.23
2023-07-25T08:27:45.616Z,27.30
2023-07-25T08:28:47.415Z,27.33
2023-07-25T08:29:49.071Z,27.24
2023-07-25T08:31:03.798Z,27.04
2023-07-25T08:32:05.994Z,26.97
2023-07-25T08:33:07.787Z,27.00
2023-07-25T08:34:09.526Z,27.16
2023-07-25T08:35:11.468Z,27.34
2023-07-25T08:36:13.167Z,27.37
2023-07-25T08:37:14.960Z,27.30
2023-07-25T08:38:16.597Z,27.25
2023-07-25T08:39:18.193Z,27.47
2023-07-25T08:40:19.887Z,27.57
2023-07-25T08:41:27.444Z,27.60
2023-07-25T08:42:33.154Z,27.68
2023-07-25T08:43:38.960Z,27.74
2023-07-25T08:44:40.987Z,27.71
2023-07-25T08:45:44.167Z,27.70
2023-07-25T08:46:46.535Z,27.45
2023-07-25T08:47:51.273Z,27.39
2023-07-25T08:48:57.772Z,27.49
2023-07-25T08:50:01.746Z,27.39
2023-07-25T08:51:06.848Z,27.45
2023-07-25T08:52:09.269Z,27.19
2023-07-25T08:53:14.093Z,26.91
2023-07-25T08:54:34.633Z,26.94
2023-07-25T08:55:36.966Z,26.87
2023-07-25T08:56:41.821Z,26.69
2023-07-25T08:57:44.004Z,26.62
2023-07-25T08:58:46.706Z,26.72
2023-07-25T08:59:49.206Z,26.83
2023-07-25T09:00:51.290Z,26.88
2023-07-25T09:01:54.138Z,26.66
2023-07-25T09:02:56.021Z,26.55
2023-07-25T09:03:59.481Z,26.54
2023-07-25T09:05:01.802Z,26.62
2023-07-25T09:06:03.932Z,26.54
2023-07-25T09:07:06.862Z,26.65
2023-07-25T09:08:08.786Z,26.86
2023-07-25T09:09:10.430Z,26.96
2023-07-25T09:10:12.078Z,27.11
2023-07-25T09:11:17.135Z,27.25
2023-07-25T09:12:19.144Z,27.24
2023-07-25T09:13:20.936Z,27.18
2023-07-25T09:14:22.552Z,27.16
2023-07-25T09:15:24.573Z,27.12
2023-07-25T09:16:26.360Z,26.95
2023-07-25T09:17:28.110Z,26.87
2023-07-25T09:18:29.936Z,26.88
2023-07-25T09:19:31.956Z,26.88
2023-07-25T09:20:33.714Z,26.76
2023-07-25T09:21:47.251Z,26.75
2023-07-25T09:22:48.978Z,26.79
2023-07-25T09:23:54.852Z,26.95
2023-07-25T09:24:57.377Z,26.95
2023-07-25T09:26:07.456Z,27.00
2023-07-25T09:27:17.152Z,26.94
2023-07-25T09:28:18.825Z,26.90
2023-07-25T09:29:20.450Z,26.92
2023-07-25T09:30:27.478Z,26.94
2023-07-25T09:31:29.664Z,26.94
2023-07-25T09:32:31.500Z,26.92
2023-07-25T09:33:33.149Z,26.96
2023-07-25T09:34:35.407Z,27.10
2023-07-25T09:35:46.529Z,27.17
2023-07-25T09:36:49.102Z,27.01
2023-07-25T09:37:56.776Z,27.02
2023-07-25T09:38:58.471Z,26.97
2023-07-25T09:40:00.166Z,26.96
2023-07-25T09:41:04.665Z,26.79
2023-07-25T09:42:08.135Z,26.71
2023-07-25T09:43:09.757Z,26.61
2023-07-25T09:44:11.362Z,26.54
2023-07-25T09:45:13.516Z,26.52
2023-07-25T09:46:15.397Z,26.69
2023-07-25T09:47:27.998Z,26.74
2023-07-25T09:48:29.632Z,26.82
2023-07-25T09:49:31.299Z,26.74
2023-07-25T09:50:35.922Z,26.70
2023-07-25T09:51:37.747Z,26.65
2023-07-25T09:52:41.536Z,26.50
2023-07-25T09:53:44.872Z,26.50
2023-07-25T09:54:46.650Z,26.41
2023-07-25T09:55:48.252Z,26.42
2023-07-25T09:56:50.096Z,26.44
2023-07-25T09:57:52.924Z,26.40
2023-07-25T10:00:01.374Z,26.44
2023-07-25T10:01:04.561Z,26.58
2023-07-25T10:02:08.463Z,26.66
2023-07-25T10:03:11.729Z,26.68
2023-07-25T10:04:16.633Z,26.68
2023-07-25T10:05:18.785Z,26.67
2023-07-25T10:06:21.388Z,26.51
2023-07-25T10:07:25.112Z,26.49
2023-07-25T10:08:27.230Z,26.62
2023-07-25T10:09:30.526Z,26.62
2023-07-25T10:10:32.198Z,26.65
2023-07-25T10:11:35.034Z,26.45
2023-07-25T10:12:36.669Z,26.32
2023-07-25T10:13:38.452Z,26.20
2023-07-25T10:14:40.129Z,25.97
2023-07-25T10:15:42.331Z,25.88
2023-07-25T10:16:44.234Z,25.91
2023-07-25T10:17:45.981Z,25.94
2023-07-25T10:18:54.436Z,25.87
2023-07-25T10:19:56.501Z,25.91
2023-07-25T10:20:58.392Z,25.93
2023-07-25T10:22:00.136Z,25.88
2023-07-25T10:23:10.778Z,25.93
2023-07-25T10:24:13.714Z,25.92
2023-07-25T10:25:27.364Z,25.92
2023-07-25T10:26:28.984Z,25.92
2023-07-25T10:27:30.652Z,25.86
2023-07-25T10:28:32.339Z,25.81
2023-07-25T10:29:38.528Z,25.75
2023-07-25T10:30:47.243Z,25.74
2023-07-25T10:31:52.026Z,25.73
2023-07-25T10:33:01.239Z,25.74
2023-07-25T10:34:03.582Z,25.81
2023-07-25T10:35:05.707Z,25.88
2023-07-25T10:36:21.483Z,25.86
2023-07-25T10:37:26.213Z,25.60
2023-07-25T10:38:35.842Z,25.63
2023-07-25T10:39:37.485Z,25.54
2023-07-25T10:40:51.931Z,25.63
2023-07-25T10:41:55.258Z,25.58
2023-07-25T10:43:07.246Z,25.58
2023-07-25T10:44:09.922Z,25.48
2023-07-25T10:45:29.441Z,25.39
2023-07-25T10:46:35.383Z,25.36
2023-07-25T10:47:46.932Z,25.40
2023-07-25T10:48:49.855Z,25.46
2023-07-25T10:49:55.355Z,25.42
2023-07-25T10:50:57.989Z,25.32
2023-07-25T10:51:59.821Z,25.25
2023-07-25T10:53:15.044Z,25.30
2023-07-25T10:55:33.508Z,25.19
2023-07-25T10:56:37.773Z,25.16
2023-07-25T10:57:39.653Z,25.20
2023-07-25T10:59:05.496Z,25.20
2023-07-25T11:00:11.374Z,24.98
2023-07-25T11:01:33.227Z,24.92
2023-07-25T11:02:42.238Z,24.82
2023-07-25T11:03:44.544Z,24.64
2023-07-25T11:06:20.300Z,24.51
2023-07-25T11:08:39.538Z,24.24
2023-07-25T11:09:42.649Z,24.10
2023-07-25T11:13:18.350Z,23.75
2023-07-25T11:14:21.184Z,23.66
2023-07-25T11:15:36.478Z,23.47
2023-07-25T11:16:47.261Z,23.46
2023-07-25T11:17:49.384Z,23.51
2023-07-25T11:18:52.322Z,23.48
2023-07-25T11:19:54.239Z,23.44
2023-07-25T11:21:04.358Z,23.42
2023-07-25T11:22:10.432Z,23.38
2023-07-25T11:23:12.247Z,23.27
2023-07-25T11:24:14.035Z,23.19
2023-07-25T11:25:16.199Z,23.10
2023-07-25T11:26:18.018Z,23.05
2023-07-25T11:27:19.758Z,22.95
2023-07-25T11:28:25.653Z,22.79
2023-07-25T11:29:27.335Z,22.64
2023-07-25T11:30:29.103Z,22.64
2023-07-25T11:31:31.093Z,22.62
2023-07-25T11:32:32.972Z,22.67
2023-07-25T11:33:41.299Z,22.67
2023-07-25T11:34:49.692Z,22.67
2023-07-25T11:35:56.292Z,22.58
2023-07-25T11:36:58.032Z,22.56
2023-07-25T11:38:02.707Z,22.53
2023-07-25T11:39:04.762Z,22.42
2023-07-25T11:40:20.545Z,22.42
2023-07-25T11:41:22.257Z,22.39
2023-07-25T11:42:25.574Z,22.44
2023-07-25T11:43:30.162Z,22.37
2023-07-25T11:44:32.655Z,22.36
2023-07-25T11:45:34.308Z,22.32
2023-07-25T11:46:37.688Z,22.28
2023-07-25T11:47:41.360Z,22.20
2023-07-25T11:48:43.261Z,22.23
2023-07-25T11:49:53.682Z,22.29
2023-07-25T11:51:00.663Z,22.28
2023-07-25T11:52:03.005Z,22.29
2023-07-25T11:53:05.426Z,22.24
2023-07-25T11:54:07.672Z,22.21
2023-07-25T11:55:10.204Z,22.19
2023-07-25T11:56:13.099Z,22.17
2023-07-25T11:57:15.070Z,22.33
2023-07-25T11:58:20.887Z,22.26
2023-07-25T11:59:22.534Z,22.30
2023-07-25T12:00:24.237Z,22.30
2023-07-25T12:01:34.169Z,22.32
2023-07-25T12:02:37.444Z,22.28
2023-07-25T12:03:49.953Z,22.33
2023-07-25T12:04:52.093Z,22.28
2023-07-25T12:05:58.998Z,22.24
2023-07-25T12:07:00.703Z,22.30
2023-07-25T12:08:02.336Z,22.38
2023-07-25T12:09:04.152Z,22.34
2023-07-25T12:10:06.071Z,22.24
2023-07-25T12:11:09.609Z,22.35
2023-07-25T12:12:14.039Z,22.44
2023-07-25T12:13:15.916Z,22.40
2023-07-25T12:14:17.562Z,22.30
2023-07-25T12:15:19.176Z,22.36
2023-07-25T12:16:34.346Z,22.35
2023-07-25T12:17:43.152Z,22.32
2023-07-25T12:18:44.819Z,22.41
2023-07-25T12:19:54.019Z,22.43
2023-07-25T12:20:58.976Z,22.46
2023-07-25T12:22:05.736Z,22.45
2023-07-25T12:23:08.084Z,22.46
2023-07-25T12:24:12.903Z,22.44
2023-07-25T12:25:19.113Z,22.49
2023-07-25T12:26:21.298Z,22.47
2023-07-25T12:27:22.932Z,22.49
2023-07-25T12:28:24.871Z,22.45
2023-07-25T12:29:26.577Z,22.36
2023-07-25T12:30:28.266Z,22.36
2023-07-25T12:31:29.912Z,22.46
2023-07-25T12:32:31.568Z,22.52
2023-07-25T12:33:33.958Z,22.55
2023-07-25T12:34:35.799Z,22.63
2023-07-25T12:35:37.456Z,22.54
2023-07-25T12:36:39.641Z,22.60
2023-07-25T12:37:41.461Z,22.64
2023-07-25T12:38:44.876Z,22.66
2023-07-25T12:39:47.643Z,22.76
2023-07-25T12:40:49.293Z,22.77
2023-07-25T12:41:50.906Z,22.80
2023-07-25T12:42:52.543Z,22.79
2023-07-25T12:43:54.162Z,22.72
2023-07-25T12:44:55.830Z,22.71
2023-07-25T12:45:57.524Z,22.67
2023-07-25T12:46:59.197Z,22.61
2023-07-25T12:48:00.959Z,22.67
2023-07-25T12:49:02.631Z,22.65
2023-07-25T12:50:04.553Z,22.55
2023-07-25T12:51:06.413Z,22.53
2023-07-25T12:52:08.250Z,22.50
2023-07-25T12:53:10.078Z,22.39
2023-07-25T12:54:11.991Z,22.42
2023-07-25T12:55:13.633Z,22.37
2023-07-25T12:56:15.289Z,22.37
2023-07-25T12:57:16.928Z,22.45
2023-07-25T12:58:18.734Z,22.40
2023-07-25T12:59:20.388Z,22.44
2023-07-25T13:00:22.095Z,22.31
2023-07-25T13:01:23.935Z,22.30
2023-07-25T13:02:25.769Z,22.32
2023-07-25T13:03:28.526Z,22.27
2023-07-25T13:04:30.443Z,22.15
2023-07-25T13:05:32.139Z,22.14
2023-07-25T13:06:33.784Z,22.19
2023-07-25T13:07:35.606Z,22.29
2023-07-25T13:08:37.341Z,22.31
2023-07-25T13:09:38.975Z,22.34
2023-07-25T13:10:40.590Z,22.24
2023-07-25T13:11:42.427Z,22.17
2023-07-25T13:12:44.089Z,22.16
2023-07-25T13:13:45.756Z,22.20
2023-07-25T13:14:47.398Z,22.19
2023-07-25T13:15:49.058Z,22.19
2023-07-25T13:16:50.865Z,22.22
2023-07-25T13:17:52.540Z,22.29
2023-07-25T13:18:54.146Z,22.17
2023-07-25T13:19:55.806Z,22.23
2023-07-25T13:20:57.539Z,22.26
2023-07-25T13:21:59.357Z,22.26
2023-07-25T13:23:00.988Z,22.26
2023-07-25T13:24:02.602Z,22.29
2023-07-25T13:25:04.572Z,22.25
2023-07-25T13:26:06.202Z,22.23
2023-07-25T13:27:07.848Z,22.30
2023-07-25T13:28:09.485Z,22.33
2023-07-25T13:29:11.422Z,22.46
2023-07-25T13:30:13.419Z,22.44
2023-07-25T13:31:15.093Z,22.42
2023-07-25T13:32:16.708Z,22.50
2023-07-25T13:33:18.420Z,22.55
2023-07-25T13:34:20.112Z,22.62
2023-07-25T13:35:21.939Z,22.67
2023-07-25T13:36:23.547Z,22.63
2023-07-25T13:37:25.212Z,22.61
2023-07-25T13:38:26.832Z,22.60